Time;durP1;ratioP1;P1;durP2;ratioP2;P2;SDS_P1;SDS_P2;PMS_P1;PMS_P2;Temp;Humidity;BMP_temperature;BMP_pressure;BME280_temperature;BME280_humidity;BME280_pressure;Samples;Min_cycle;Max_cycle;Signal;HPM_P1;HPM_P2
2023/10/11 00:00:47;;;;;;;11.23;5.07;;;;;;;;;;5069962;28;39390;-69
2023/10/11 00:03:18;;;;;;;7.13;5.00;;;;;;;;;;5081368;28;41800;-69
2023/10/11 00:05:53;;;;;;;8.20;4.93;;;;;;;;;;5069669;28;43141;-68
2023/10/11 00:08:25;;;;;;;11.48;5.15;;;;;;;;;;5070851;28;41900;-69
2023/10/11 00:10:57;;;;;;;6.82;4.80;;;;;;;;;;5070241;28;42392;-69
2023/10/11 00:13:35;;;;;;;7.88;4.65;;;;;;;;;;5069689;28;42359;-69
2023/10/11 00:16:07;;;;;;;5.68;4.18;;;;;;;;;;5070228;28;38848;-69
2023/10/11 00:18:38;;;;;;;5.70;4.40;;;;;;;;;;5067786;28;42579;-69
2023/10/11 00:21:11;;;;;;;9.55;5.20;;;;;;;;;;5070163;28;40139;-69
2023/10/11 00:23:42;;;;;;;7.28;5.15;;;;;;;;;;5069632;28;41527;-69
2023/10/11 00:26:10;;;;;;;6.43;4.53;;;;;;;;;;5070166;28;43829;-69
2023/10/11 00:28:45;;;;;;;6.35;4.30;;;;;;;;;;5076500;28;40468;-70
2023/10/11 00:31:19;;;;;;;4.82;4.13;;;;;;;;;;5071245;28;41536;-69
2023/10/11 00:33:47;;;;;;;7.72;5.47;;;;;;;;;;5068904;28;41541;-69
2023/10/11 00:36:24;;;;;;;7.15;4.53;;;;;;;;;;5070013;28;40968;-69
2023/10/11 00:38:56;;;;;;;7.03;4.57;;;;;;;;;;5067740;28;41795;-69
2023/10/11 00:41:30;;;;;;;8.07;4.38;;;;;;;;;;5069444;28;40219;-69
2023/10/11 00:44:02;;;;;;;5.35;4.13;;;;;;;;;;5068065;28;39697;-69
2023/10/11 00:46:37;;;;;;;5.90;4.40;;;;;;;;;;5068662;28;42489;-69
2023/10/11 00:49:09;;;;;;;5.95;4.88;;;;;;;;;;5084098;28;41288;-68
2023/10/11 00:51:39;;;;;;;8.13;4.25;;;;;;;;;;5087475;28;42177;-69
2023/10/11 00:54:07;;;;;;;5.50;3.85;;;;;;;;;;5084629;28;42141;-69
2023/10/11 00:56:35;;;;;;;6.13;4.70;;;;;;;;;;5089244;28;40477;-69
2023/10/11 00:59:08;;;;;;;10.52;5.82;;;;;;;;;;5088772;28;41515;-69
2023/10/11 01:01:36;;;;;;;7.85;5.32;;;;;;;;;;5088039;28;42683;-69
2023/10/11 01:04:06;;;;;;;8.52;5.45;;;;;;;;;;5089393;28;41724;-69
2023/10/11 01:06:35;;;;;;;7.88;5.75;;;;;;;;;;5088762;28;42539;-69
2023/10/11 01:09:08;;;;;;;6.30;4.78;;;;;;;;;;5088910;28;40160;-69
2023/10/11 01:11:36;;;;;;;7.05;5.18;;;;;;;;;;5086741;28;41327;-68
2023/10/11 01:14:06;;;;;;;7.03;4.55;;;;;;;;;;5088476;28;42911;-69
2023/10/11 01:16:35;;;;;;;6.13;4.95;;;;;;;;;;5072686;28;39083;-69
2023/10/11 01:19:07;;;;;;;5.22;3.80;;;;;;;;;;5070792;28;40155;-69
2023/10/11 01:21:37;;;;;;;7.07;4.68;;;;;;;;;;5074997;28;41816;-69
2023/10/11 01:24:08;;;;;;;5.53;4.70;;;;;;;;;;5082913;28;40095;-69
2023/10/11 01:26:36;;;;;;;7.38;4.88;;;;;;;;;;5081117;28;42296;-69
2023/10/11 01:29:05;;;;;;;7.15;5.28;;;;;;;;;;5086777;28;38849;-69
2023/10/11 01:31:34;;;;;;;5.30;3.88;;;;;;;;;;5078281;28;42015;-69
2023/10/11 01:34:02;;;;;;;6.25;4.57;;;;;;;;;;5086583;28;43262;-69
2023/10/11 01:36:31;;;;;;;4.55;3.95;;;;;;;;;;5088662;28;40892;-69
2023/10/11 01:39:08;;;;;;;5.95;3.92;;;;;;;;;;5088064;28;40960;-69
2023/10/11 01:41:40;;;;;;;7.70;4.35;;;;;;;;;;5088083;28;42424;-69
2023/10/11 01:44:08;;;;;;;5.75;4.15;;;;;;;;;;5087704;28;39803;-69
2023/10/11 01:46:39;;;;;;;7.00;4.53;;;;;;;;;;5088785;28;41625;-69
2023/10/11 01:49:07;;;;;;;5.28;4.05;;;;;;;;;;5083410;28;40659;-69
2023/10/11 01:51:39;;;;;;;7.65;5.35;;;;;;;;;;5077041;28;41544;-69
2023/10/11 01:54:09;;;;;;;5.78;4.32;;;;;;;;;;5087179;28;40707;-69
2023/10/11 01:56:38;;;;;;;5.40;4.45;;;;;;;;;;5086238;28;39181;-69
2023/10/11 01:59:07;;;;;;;5.18;3.72;;;;;;;;;;5087406;28;40536;-69
2023/10/11 02:01:39;;;;;;;7.40;5.68;;;;;;;;;;5087210;28;41205;-69
2023/10/11 02:04:16;;;;;;;5.50;4.07;;;;;;;;;;5086963;28;39907;-69
2023/10/11 02:06:44;;;;;;;6.53;4.88;;;;;;;;;;5074529;28;42571;-69
2023/10/11 02:09:13;;;;;;;5.85;4.28;;;;;;;;;;5087400;28;39770;-69
2023/10/11 02:11:42;;;;;;;5.75;4.22;;;;;;;;;;5088270;28;41808;-69
2023/10/11 02:14:13;;;;;;;6.15;4.32;;;;;;;;;;5088843;28;42468;-69
2023/10/11 02:16:41;;;;;;;6.50;4.93;;;;;;;;;;5086531;28;39596;-69
2023/10/11 02:19:09;;;;;;;4.88;4.07;;;;;;;;;;5088367;28;42333;-69
2023/10/11 02:21:43;;;;;;;5.30;4.03;;;;;;;;;;5087441;28;41967;-69
2023/10/11 02:24:14;;;;;;;7.40;5.07;;;;;;;;;;5078085;28;39967;-69
2023/10/11 02:26:49;;;;;;;5.85;4.15;;;;;;;;;;5083497;28;40647;-69
2023/10/11 02:29:20;;;;;;;6.25;4.20;;;;;;;;;;5089102;28;41650;-69
2023/10/11 02:31:50;;;;;;;5.85;4.32;;;;;;;;;;5085875;28;41340;-69
2023/10/11 02:34:19;;;;;;;6.88;4.07;;;;;;;;;;5088664;28;41764;-69
2023/10/11 02:36:55;;;;;;;5.35;3.55;;;;;;;;;;5087942;28;41349;-69
2023/10/11 02:39:31;;;;;;;6.00;3.97;;;;;;;;;;5085018;28;41608;-69
2023/10/11 02:42:01;;;;;;;6.90;5.10;;;;;;;;;;5086165;28;41227;-69
2023/10/11 02:44:30;;;;;;;5.63;3.70;;;;;;;;;;5087132;28;40125;-69
2023/10/11 02:46:59;;;;;;;6.00;4.53;;;;;;;;;;5087782;28;43088;-69
2023/10/11 02:49:31;;;;;;;7.25;5.43;;;;;;;;;;5088450;28;42197;-68
2023/10/11 02:52:05;;;;;;;5.78;4.35;;;;;;;;;;5085304;28;40110;-69
2023/10/11 02:54:38;;;;;;;5.50;4.20;;;;;;;;;;5088109;28;41805;-69
2023/10/11 02:57:18;;;;;;;6.40;5.00;;;;;;;;;;5087118;28;40127;-69
2023/10/11 02:59:50;;;;;;;6.28;4.88;;;;;;;;;;5086833;28;42724;-69
2023/10/11 03:02:20;;;;;;;5.60;4.45;;;;;;;;;;5085745;28;42556;-69
2023/10/11 03:04:50;;;;;;;6.90;4.22;;;;;;;;;;5086135;28;41039;-70
2023/10/11 03:07:22;;;;;;;4.70;3.95;;;;;;;;;;5085730;28;40207;-68
2023/10/11 03:09:53;;;;;;;7.35;4.82;;;;;;;;;;5086521;28;40857;-69
2023/10/11 03:12:30;;;;;;;4.53;3.55;;;;;;;;;;5087653;28;40488;-69
2023/10/11 03:15:06;;;;;;;6.80;4.88;;;;;;;;;;5086211;28;40833;-69
2023/10/11 03:17:40;;;;;;;4.10;3.70;;;;;;;;;;5087153;28;40945;-68
2023/10/11 03:20:09;;;;;;;7.65;4.82;;;;;;;;;;5086956;28;41730;-69
2023/10/11 03:22:37;;;;;;;5.40;4.22;;;;;;;;;;5087225;28;43962;-69
2023/10/11 03:25:12;;;;;;;4.90;3.92;;;;;;;;;;5073327;28;40063;-69
2023/10/11 03:27:49;;;;;;;5.28;3.88;;;;;;;;;;5086587;28;41815;-68
2023/10/11 03:30:21;;;;;;;5.80;4.50;;;;;;;;;;5087717;28;41959;-69
2023/10/11 03:32:49;;;;;;;7.53;5.15;;;;;;;;;;5086473;28;41006;-69
2023/10/11 03:35:19;;;;;;;7.20;5.05;;;;;;;;;;5087043;28;41651;-69
2023/10/11 03:37:58;;;;;;;5.90;4.28;;;;;;;;;;5087536;28;32791;-69
2023/10/11 03:40:34;;;;;;;8.05;5.40;;;;;;;;;;5087153;28;42340;-68
2023/10/11 03:43:12;;;;;;;7.55;5.15;;;;;;;;;;5088060;28;20260;-69
2023/10/11 03:45:49;;;;;;;8.05;5.90;;;;;;;;;;5087014;28;41318;-69
2023/10/11 03:48:17;;;;;;;6.75;5.03;;;;;;;;;;5087143;28;42029;-69
2023/10/11 03:50:52;;;;;;;4.82;3.92;;;;;;;;;;5087283;28;41885;-69
2023/10/11 03:53:20;;;;;;;6.45;5.20;;;;;;;;;;5087298;28;40993;-69
2023/10/11 03:55:49;;;;;;;5.93;5.10;;;;;;;;;;5086165;28;42188;-69
2023/10/11 04:01:08;;;;;;;7.80;5.82;;;;;;;;;;5085711;28;41689;-69
2023/10/11 04:03:39;;;;;;;6.57;5.05;;;;;;;;;;5086101;28;42600;-69
2023/10/11 04:06:14;;;;;;;7.85;4.45;;;;;;;;;;5086859;28;40323;-69
2023/10/11 04:08:47;;;;;;;6.63;5.22;;;;;;;;;;5087148;28;41917;-69
2023/10/11 04:11:18;;;;;;;6.28;4.97;;;;;;;;;;5087061;28;42306;-69
2023/10/11 04:13:49;;;;;;;8.75;5.53;;;;;;;;;;5086549;28;41336;-69
2023/10/11 04:16:17;;;;;;;6.97;4.63;;;;;;;;;;5080810;28;41139;-69
2023/10/11 04:18:45;;;;;;;5.95;4.53;;;;;;;;;;5077123;28;42389;-69
2023/10/11 04:21:16;;;;;;;7.82;3.75;;;;;;;;;;5079176;28;40172;-69
2023/10/11 04:23:46;;;;;;;6.20;4.82;;;;;;;;;;5070941;28;43101;-69
2023/10/11 04:26:35;;;;;;;8.00;4.75;;;;;;;;;;5073092;28;39695;-69
2023/10/11 04:29:17;;;;;;;8.02;4.15;;;;;;;;;;5074172;28;42598;-69
2023/10/11 04:31:55;;;;;;;6.03;4.45;;;;;;;;;;5078302;28;42508;-69
2023/10/11 04:34:31;;;;;;;4.75;3.90;;;;;;;;;;5086922;28;40899;-69
2023/10/11 04:37:00;;;;;;;5.32;3.80;;;;;;;;;;5085697;28;42545;-69
2023/10/11 04:39:34;;;;;;;9.45;5.75;;;;;;;;;;5085959;28;43089;-69
2023/10/11 04:42:06;;;;;;;4.53;3.72;;;;;;;;;;5071972;28;40145;-69
2023/10/11 04:44:42;;;;;;;6.93;5.22;;;;;;;;;;5075552;28;41247;-68
2023/10/11 04:47:11;;;;;;;6.03;4.68;;;;;;;;;;5070802;28;40904;-68
2023/10/11 04:49:43;;;;;;;9.07;5.88;;;;;;;;;;5075923;28;41699;-69
2023/10/11 04:52:14;;;;;;;8.20;4.47;;;;;;;;;;5068762;28;42773;-69
2023/10/11 04:54:53;;;;;;;8.65;6.15;;;;;;;;;;5074666;28;39890;-68
2023/10/11 04:57:36;;;;;;;7.30;5.47;;;;;;;;;;5069948;28;41778;-69
2023/10/11 05:00:08;;;;;;;8.10;6.07;;;;;;;;;;5068655;28;42736;-69
2023/10/11 05:02:38;;;;;;;5.60;4.85;;;;;;;;;;5070314;28;40463;-69
2023/10/11 05:05:10;;;;;;;8.15;6.13;;;;;;;;;;5078023;28;41132;-69
2023/10/11 05:07:42;;;;;;;7.28;5.38;;;;;;;;;;5069496;28;42894;-68
2023/10/11 05:10:29;;;;;;;5.72;4.68;;;;;;;;;;5069613;28;42254;-69
2023/10/11 05:13:05;;;;;;;7.18;5.43;;;;;;;;;;5068520;28;43004;-69
2023/10/11 05:15:42;;;;;;;7.15;4.38;;;;;;;;;;5081381;28;40309;-67
2023/10/11 05:18:18;;;;;;;10.32;5.60;;;;;;;;;;5070020;27;41543;-68
2023/10/11 05:20:57;;;;;;;8.05;5.97;;;;;;;;;;5068464;28;42684;-67
2023/10/11 05:23:41;;;;;;;15.27;5.50;;;;;;;;;;5069097;28;39209;-68
2023/10/11 05:26:36;;;;;;;8.27;5.63;;;;;;;;;;5080483;28;41250;-67
2023/10/11 05:29:12;;;;;;;7.60;4.63;;;;;;;;;;5089182;28;42068;-68
2023/10/11 05:31:56;;;;;;;9.65;5.40;;;;;;;;;;5089382;28;41362;-68
2023/10/11 05:34:46;;;;;;;8.20;6.47;;;;;;;;;;5088359;28;43367;-68
2023/10/11 05:51:03;;;;;;;9.68;4.93;;;;;;;;;;5076396;28;42082;-76
2023/10/11 05:53:32;;;;;;;6.75;4.25;;;;;;;;;;5089021;28;41361;-72
2023/10/11 05:56:00;;;;;;;8.60;4.72;;;;;;;;;;5068857;28;41684;-71
2023/10/11 05:58:28;;;;;;;9.55;4.40;;;;;;;;;;5071768;28;39927;-77
2023/10/11 06:00:56;;;;;;;12.15;6.03;;;;;;;;;;5074296;28;41542;-75
2023/10/11 06:03:28;;;;;;;11.70;4.40;;;;;;;;;;5068056;28;42158;-77
2023/10/11 06:06:03;;;;;;;10.30;4.82;;;;;;;;;;5068345;28;41363;-73
2023/10/11 06:08:31;;;;;;;9.50;5.22;;;;;;;;;;5067554;28;42592;-78
2023/10/11 06:10:59;;;;;;;9.32;5.18;;;;;;;;;;5077746;28;42177;-83
2023/10/11 06:13:29;;;;;;;11.13;4.88;;;;;;;;;;5066973;28;40341;-76
2023/10/11 06:15:59;;;;;;;9.75;7.28;;;;;;;;;;5074226;28;42222;-81
2023/10/11 06:18:55;;;;;;;8.00;5.07;;;;;;;;;;5085768;28;39048;-78
2023/10/11 06:21:33;;;;;;;7.80;5.72;;;;;;;;;;5076595;28;41507;-78
2023/10/11 06:24:03;;;;;;;12.68;5.82;;;;;;;;;;5074509;28;43024;-77
2023/10/11 06:29:18;;;;;;;14.40;6.93;;;;;;;;;;5070473;28;42106;-76
2023/10/11 06:31:45;;;;;;;7.93;5.80;;;;;;;;;;5067425;28;43674;-77
2023/10/11 06:34:23;;;;;;;11.52;6.63;;;;;;;;;;5071134;28;39884;-76
2023/10/11 06:36:51;;;;;;;12.80;6.38;;;;;;;;;;5073981;28;41862;-78
2023/10/11 06:39:55;;;;;;;9.93;5.95;;;;;;;;;;5070236;28;42169;-72
2023/10/11 06:42:21;;;;;;;11.75;6.60;;;;;;;;;;5067701;28;43065;-74
2023/10/11 06:44:51;;;;;;;17.30;7.18;;;;;;;;;;5070102;28;42798;-73
2023/10/11 06:47:20;;;;;;;15.68;7.65;;;;;;;;;;5069785;28;40561;-74
2023/10/11 06:49:54;;;;;;;10.82;6.50;;;;;;;;;;5074867;28;42792;-75
2023/10/11 06:52:25;;;;;;;12.32;6.55;;;;;;;;;;5080397;28;42659;-73
2023/10/11 06:55:08;;;;;;;10.90;6.72;;;;;;;;;;5069556;28;41309;-75
2023/10/11 06:57:39;;;;;;;7.88;6.20;;;;;;;;;;5070897;28;41085;-73
2023/10/11 07:00:12;;;;;;;15.40;6.57;;;;;;;;;;5071104;28;41689;-72
2023/10/11 07:02:47;;;;;;;12.68;5.75;;;;;;;;;;5069588;28;40507;-74
2023/10/11 07:05:19;;;;;;;16.52;5.78;;;;;;;;;;5069617;28;42125;-75
2023/10/11 07:07:48;;;;;;;11.60;6.72;;;;;;;;;;5066744;28;41242;-72
2023/10/11 07:10:32;;;;;;;10.00;6.88;;;;;;;;;;5074210;28;42203;-74
2023/10/11 07:13:07;;;;;;;18.33;6.75;;;;;;;;;;5085004;28;42005;-74
2023/10/11 07:15:37;;;;;;;19.15;6.97;;;;;;;;;;5074400;28;40535;-71
2023/10/11 07:18:08;;;;;;;20.15;7.45;;;;;;;;;;5069862;28;41505;-71
2023/10/11 07:20:57;;;;;;;15.05;6.55;;;;;;;;;;5075111;28;42898;-68
2023/10/11 07:23:35;;;;;;;13.70;6.85;;;;;;;;;;5067836;28;40717;-72
2023/10/11 07:28:50;;;;;;;16.02;7.93;;;;;;;;;;5086411;28;40125;-72
2023/10/11 07:31:17;;;;;;;21.40;9.35;;;;;;;;;;5079506;28;41567;-75
2023/10/11 07:33:49;;;;;;;15.23;8.70;;;;;;;;;;5079420;28;41957;-73
2023/10/11 07:36:19;;;;;;;12.10;8.23;;;;;;;;;;5066150;28;40727;-74
2023/10/11 07:38:54;;;;;;;15.90;9.38;;;;;;;;;;5066743;28;42569;-75
2023/10/11 07:41:24;;;;;;;14.30;9.45;;;;;;;;;;5066054;28;43410;-79
2023/10/11 07:43:55;;;;;;;17.33;8.95;;;;;;;;;;5068881;28;42504;-75
2023/10/11 07:46:23;;;;;;;20.05;9.63;;;;;;;;;;5067501;28;42220;-71
2023/10/11 07:48:57;;;;;;;17.20;9.18;;;;;;;;;;5068946;28;43006;-73
2023/10/11 07:51:26;;;;;;;17.73;8.57;;;;;;;;;;5067604;28;40118;-72
2023/10/11 07:53:54;;;;;;;14.15;7.80;;;;;;;;;;5072979;28;43256;-72
2023/10/11 07:56:22;;;;;;;13.00;8.15;;;;;;;;;;5075116;28;39910;-71
2023/10/11 07:58:51;;;;;;;27.25;8.75;;;;;;;;;;5065834;28;42824;-71
2023/10/11 08:01:30;;;;;;;13.10;8.95;;;;;;;;;;5064672;28;42743;-71
2023/10/11 08:03:58;;;;;;;18.48;8.75;;;;;;;;;;5065022;28;41376;-71
2023/10/11 08:06:31;;;;;;;17.33;9.43;;;;;;;;;;5065785;28;41856;-71
2023/10/11 08:09:00;;;;;;;12.23;6.93;;;;;;;;;;5070268;28;41971;-71
2023/10/11 08:11:36;;;;;;;15.25;8.57;;;;;;;;;;5066025;28;41861;-71
2023/10/11 08:14:14;;;;;;;17.40;9.18;;;;;;;;;;5065623;28;42166;-71
2023/10/11 08:16:43;;;;;;;15.00;9.30;;;;;;;;;;5064530;28;39976;-71
2023/10/11 08:19:11;;;;;;;13.43;9.13;;;;;;;;;;5068440;28;42850;-71
2023/10/11 08:21:41;;;;;;;16.67;9.52;;;;;;;;;;5068701;28;42628;-71
2023/10/11 08:24:15;;;;;;;17.27;10.13;;;;;;;;;;5068343;28;40284;-71
2023/10/11 08:26:45;;;;;;;18.35;10.90;;;;;;;;;;5085918;28;41110;-70
2023/10/11 08:29:27;;;;;;;16.42;8.90;;;;;;;;;;5088986;28;41893;-71
2023/10/11 08:31:57;;;;;;;14.82;8.35;;;;;;;;;;5082035;28;40552;-70
2023/10/11 08:34:26;;;;;;;16.55;8.70;;;;;;;;;;5079164;28;43188;-70
2023/10/11 08:36:56;;;;;;;17.95;7.90;;;;;;;;;;5088345;28;41224;-70
2023/10/11 08:39:35;;;;;;;17.80;10.43;;;;;;;;;;5078978;28;42811;-70
2023/10/11 08:42:08;;;;;;;16.40;8.50;;;;;;;;;;5088999;28;42602;-70
2023/10/11 08:44:36;;;;;;;17.45;10.00;;;;;;;;;;5088645;28;40344;-70
2023/10/11 08:47:04;;;;;;;18.05;9.52;;;;;;;;;;5089435;28;41104;-70
2023/10/11 08:49:34;;;;;;;16.25;8.98;;;;;;;;;;5087263;28;42373;-69
2023/10/11 08:52:04;;;;;;;20.35;10.70;;;;;;;;;;5067959;28;41254;-73
2023/10/11 08:54:32;;;;;;;18.73;8.73;;;;;;;;;;5068872;28;41493;-73
2023/10/11 08:57:03;;;;;;;18.55;8.82;;;;;;;;;;5070160;28;40250;-73
2023/10/11 08:59:31;;;;;;;24.02;8.15;;;;;;;;;;5073947;28;41853;-71
2023/10/11 09:02:07;;;;;;;15.32;7.80;;;;;;;;;;5088653;28;42711;-73
2023/10/11 09:04:35;;;;;;;16.80;9.13;;;;;;;;;;5088133;28;42077;-78
2023/10/11 09:07:05;;;;;;;14.10;10.25;;;;;;;;;;5088753;28;42070;-74
2023/10/11 09:09:39;;;;;;;20.38;11.93;;;;;;;;;;5088471;28;43228;-77
2023/10/11 09:12:24;;;;;;;18.50;9.52;;;;;;;;;;5087832;28;40785;-75
2023/10/11 09:14:58;;;;;;;17.23;10.73;;;;;;;;;;5089260;28;40885;-74
2023/10/11 09:17:26;;;;;;;15.93;9.50;;;;;;;;;;5088451;28;42224;-74
2023/10/11 09:19:58;;;;;;;15.38;9.73;;;;;;;;;;5087718;28;41557;-73
2023/10/11 09:22:28;;;;;;;17.65;10.48;;;;;;;;;;5085077;28;41831;-75
2023/10/11 09:25:03;;;;;;;14.27;10.20;;;;;;;;;;5073431;28;40427;-74
2023/10/11 09:27:42;;;;;;;19.45;9.68;;;;;;;;;;5084787;28;41084;-75
2023/10/11 09:30:19;;;;;;;19.42;12.23;;;;;;;;;;5070424;28;41937;-72
2023/10/11 09:32:52;;;;;;;19.35;10.30;;;;;;;;;;5067834;28;40354;-72
2023/10/11 09:35:23;;;;;;;23.48;9.25;;;;;;;;;;5068572;28;42595;-74
2023/10/11 09:37:53;;;;;;;32.30;7.30;;;;;;;;;;5068044;28;41420;-69
2023/10/11 09:40:26;;;;;;;18.25;10.18;;;;;;;;;;5069165;28;41945;-74
2023/10/11 09:42:57;;;;;;;24.92;12.15;;;;;;;;;;5075345;28;41824;-74
2023/10/11 09:45:25;;;;;;;22.60;9.80;;;;;;;;;;5089450;28;40143;-77
2023/10/11 09:47:55;;;;;;;22.40;12.15;;;;;;;;;;5086685;28;42097;-73
2023/10/11 09:50:24;;;;;;;26.13;12.68;;;;;;;;;;5074211;28;41465;-70
2023/10/11 09:52:54;;;;;;;20.67;11.23;;;;;;;;;;5083513;28;40531;-71
2023/10/11 09:55:23;;;;;;;24.13;12.88;;;;;;;;;;5079163;28;42190;-70
2023/10/11 09:57:59;;;;;;;28.95;10.52;;;;;;;;;;5070474;28;40148;-81
2023/10/11 10:00:34;;;;;;;22.40;13.25;;;;;;;;;;5067002;28;41966;-72
2023/10/11 10:03:04;;;;;;;29.42;12.07;;;;;;;;;;5073257;28;41358;-75
2023/10/11 10:05:49;;;;;;;17.17;11.48;;;;;;;;;;5072947;28;40985;-74
2023/10/11 10:08:28;;;;;;;23.08;12.02;;;;;;;;;;5078547;28;41252;-73
2023/10/11 10:10:56;;;;;;;21.75;13.40;;;;;;;;;;5075481;28;42545;-72
2023/10/11 10:13:26;;;;;;;30.55;13.63;;;;;;;;;;5068495;28;40660;-69
2023/10/11 10:15:57;;;;;;;16.77;9.77;;;;;;;;;;5067825;28;41596;-73
2023/10/11 10:18:27;;;;;;;25.60;13.07;;;;;;;;;;5066158;28;41611;-73
2023/10/11 10:21:02;;;;;;;26.13;14.00;;;;;;;;;;5067012;28;40990;-73
2023/10/11 10:23:32;;;;;;;20.77;13.05;;;;;;;;;;5070915;28;42139;-73
2023/10/11 10:26:21;;;;;;;17.65;10.23;;;;;;;;;;5082253;28;39327;-73
2023/10/11 10:28:53;;;;;;;20.45;11.82;;;;;;;;;;5081366;28;40597;-72
2023/10/11 10:31:21;;;;;;;21.30;10.23;;;;;;;;;;5083405;28;42280;-73
2023/10/11 10:34:12;;;;;;;21.73;14.23;;;;;;;;;;5080783;28;40736;-72
2023/10/11 10:36:42;;;;;;;16.95;11.25;;;;;;;;;;5083445;28;41436;-73
2023/10/11 10:42:13;;;;;;;20.83;13.13;;;;;;;;;;5039264;28;40664;-73
2023/10/11 10:44:49;;;;;;;16.33;12.32;;;;;;;;;;5020146;28;41322;-73
2023/10/11 10:47:38;;;;;;;14.35;9.68;;;;;;;;;;5056891;28;41994;-73
2023/10/11 10:50:16;;;;;;;14.57;10.00;;;;;;;;;;5063564;28;40936;-73
2023/10/11 10:52:44;;;;;;;20.23;13.05;;;;;;;;;;5077122;28;41574;-73
2023/10/11 10:55:14;;;;;;;17.83;8.63;;;;;;;;;;5076529;28;41690;-75
2023/10/11 10:57:42;;;;;;;22.58;12.73;;;;;;;;;;5071054;28;41922;-73
2023/10/11 11:00:20;;;;;;;10.85;8.00;;;;;;;;;;5077817;28;42929;-73
2023/10/11 11:02:49;;;;;;;19.55;12.52;;;;;;;;;;5074961;28;41405;-73
2023/10/11 11:05:24;;;;;;;20.65;13.18;;;;;;;;;;5072489;28;42524;-72
2023/10/11 11:08:15;;;;;;;16.27;10.95;;;;;;;;;;5075727;28;42621;-72
2023/10/11 11:10:54;;;;;;;16.67;12.68;;;;;;;;;;5080728;28;42382;-73
2023/10/11 11:13:25;;;;;;;23.73;13.77;;;;;;;;;;5078225;28;43193;-72
2023/10/11 11:15:56;;;;;;;21.42;14.43;;;;;;;;;;5078573;28;41464;-73
2023/10/11 11:18:31;;;;;;;22.02;14.65;;;;;;;;;;5074405;28;41304;-70
2023/10/11 11:21:17;;;;;;;20.65;14.23;;;;;;;;;;5080048;28;42503;-70
2023/10/11 11:23:45;;;;;;;23.70;14.27;;;;;;;;;;5070107;28;39456;-69
2023/10/11 11:26:16;;;;;;;15.60;10.07;;;;;;;;;;5083044;28;40997;-70
2023/10/11 11:29:11;;;;;;;16.23;11.07;;;;;;;;;;5079709;28;41652;-70
2023/10/11 11:31:51;;;;;;;19.40;10.00;;;;;;;;;;5082443;28;39893;-70
2023/10/11 11:34:27;;;;;;;18.50;10.43;;;;;;;;;;5083933;28;42315;-70
2023/10/11 11:36:56;;;;;;;12.52;9.10;;;;;;;;;;5078802;28;40367;-71
2023/10/11 11:39:50;;;;;;;22.08;12.68;;;;;;;;;;5080236;28;41273;-69
2023/10/11 11:42:20;;;;;;;15.60;10.63;;;;;;;;;;5079735;28;42124;-70
2023/10/11 11:44:49;;;;;;;18.40;10.27;;;;;;;;;;5083369;27;40480;-71
2023/10/11 11:47:21;;;;;;;16.88;11.10;;;;;;;;;;5075435;28;42025;-69
2023/10/11 11:49:53;;;;;;;15.80;10.00;;;;;;;;;;5075898;28;41993;-70
2023/10/11 11:52:21;;;;;;;23.88;12.70;;;;;;;;;;5075547;28;40315;-70
2023/10/11 11:54:48;;;;;;;16.98;10.70;;;;;;;;;;5075042;28;41986;-70
2023/10/11 11:57:17;;;;;;;21.60;13.98;;;;;;;;;;5079683;28;42112;-69
2023/10/11 11:59:45;;;;;;;18.60;12.43;;;;;;;;;;5072919;28;42491;-68
2023/10/11 12:02:17;;;;;;;13.30;8.35;;;;;;;;;;5075425;28;41896;-68
2023/10/11 12:04:48;;;;;;;18.25;11.25;;;;;;;;;;5075335;28;40115;-73
2023/10/11 12:07:15;;;;;;;20.95;12.57;;;;;;;;;;5081023;28;41665;-72
2023/10/11 12:09:45;;;;;;;18.33;10.45;;;;;;;;;;5074304;28;44416;-72
2023/10/11 12:12:30;;;;;;;19.13;12.55;;;;;;;;;;5076943;28;40339;-72
2023/10/11 12:15:00;;;;;;;14.38;8.40;;;;;;;;;;5074547;28;42339;-72
2023/10/11 12:17:29;;;;;;;24.45;12.05;;;;;;;;;;5075359;28;42543;-71
2023/10/11 12:19:57;;;;;;;13.55;10.70;;;;;;;;;;5073534;28;40232;-72
2023/10/11 12:22:25;;;;;;;17.02;9.98;;;;;;;;;;5076441;28;43107;-72
2023/10/11 12:24:58;;;;;;;16.23;10.18;;;;;;;;;;5079713;28;40040;-72
2023/10/11 12:27:26;;;;;;;14.43;10.13;;;;;;;;;;5083653;28;41415;-73
2023/10/11 12:29:55;;;;;;;13.93;10.13;;;;;;;;;;5081630;28;41732;-77
2023/10/11 12:32:37;;;;;;;19.75;11.48;;;;;;;;;;5083914;28;40981;-78
2023/10/11 12:35:08;;;;;;;13.07;8.57;;;;;;;;;;5083584;28;41723;-78
2023/10/11 12:37:36;;;;;;;19.42;9.50;;;;;;;;;;5083055;28;41732;-78
2023/10/11 12:40:11;;;;;;;14.50;8.00;;;;;;;;;;5081503;28;40837;-78
2023/10/11 12:42:40;;;;;;;13.20;9.25;;;;;;;;;;5080172;28;43175;-78
2023/10/11 12:45:08;;;;;;;11.88;8.35;;;;;;;;;;5082717;28;40379;-78
2023/10/11 12:47:38;;;;;;;12.10;8.40;;;;;;;;;;5082539;28;40539;-78
2023/10/11 12:50:06;;;;;;;14.77;10.15;;;;;;;;;;5082911;28;42153;-78
2023/10/11 12:52:37;;;;;;;12.45;9.00;;;;;;;;;;5082056;28;41000;-78
2023/10/11 12:55:06;;;;;;;12.15;8.85;;;;;;;;;;5084052;28;42155;-78
2023/10/11 12:57:38;;;;;;;15.05;8.98;;;;;;;;;;5076190;28;41998;-78
2023/10/11 13:00:20;;;;;;;10.90;7.60;;;;;;;;;;5068856;28;40689;-78
2023/10/11 13:02:50;;;;;;;8.85;7.35;;;;;;;;;;5081156;28;42360;-78
2023/10/11 13:05:18;;;;;;;12.80;8.57;;;;;;;;;;5074554;28;40431;-78
2023/10/11 13:07:45;;;;;;;11.95;8.25;;;;;;;;;;5078229;28;41133;-78
2023/10/11 13:10:15;;;;;;;11.70;8.05;;;;;;;;;;5077017;28;42720;-78
2023/10/11 13:12:42;;;;;;;9.88;7.97;;;;;;;;;;5071608;28;39846;-78
2023/10/11 13:15:16;;;;;;;12.70;9.13;;;;;;;;;;5078869;28;42504;-78
2023/10/11 13:17:47;;;;;;;9.73;7.40;;;;;;;;;;5071192;28;41259;-78
2023/10/11 13:20:19;;;;;;;9.38;7.18;;;;;;;;;;5077034;28;40775;-78
2023/10/11 13:22:47;;;;;;;12.32;7.70;;;;;;;;;;5074547;28;40642;-79
2023/10/11 13:25:23;;;;;;;11.55;7.22;;;;;;;;;;5081533;28;42888;-78
2023/10/11 13:28:03;;;;;;;11.43;8.73;;;;;;;;;;5073472;28;42646;-79
2023/10/11 13:30:36;;;;;;;7.53;6.70;;;;;;;;;;5076058;28;41531;-78
2023/10/11 13:33:09;;;;;;;9.65;8.05;;;;;;;;;;5073909;28;39851;-79
2023/10/11 13:35:39;;;;;;;11.20;7.25;;;;;;;;;;5080536;28;42597;-79
2023/10/11 13:38:11;;;;;;;8.07;7.03;;;;;;;;;;5072493;28;42712;-79
2023/10/11 13:40:41;;;;;;;9.25;6.60;;;;;;;;;;5077398;28;40578;-72
2023/10/11 13:43:09;;;;;;;9.90;7.38;;;;;;;;;;5080387;28;41585;-79
2023/10/11 13:45:40;;;;;;;12.60;8.20;;;;;;;;;;5081341;28;42310;-81
2023/10/11 13:48:13;;;;;;;12.73;8.48;;;;;;;;;;5082968;28;41326;-81
2023/10/11 13:50:49;;;;;;;15.30;8.52;;;;;;;;;;5081690;28;42299;-81
2023/10/11 13:53:23;;;;;;;10.27;8.90;;;;;;;;;;5082833;28;40838;-80
2023/10/11 13:55:51;;;;;;;11.95;7.57;;;;;;;;;;5083454;28;40822;-81
2023/10/11 13:58:20;;;;;;;12.77;7.60;;;;;;;;;;5083757;28;41524;-80
2023/10/11 14:01:01;;;;;;;13.25;9.77;;;;;;;;;;5076543;28;40439;-79
2023/10/11 14:03:40;;;;;;;13.45;10.38;;;;;;;;;;5070982;28;41044;-78
2023/10/11 14:06:41;;;;;;;20.73;9.27;;;;;;;;;;5081208;28;41985;-79
2023/10/11 14:09:17;;;;;;;13.55;9.63;;;;;;;;;;5076096;28;40955;-79
2023/10/11 14:11:46;;;;;;;11.35;8.45;;;;;;;;;;5080054;28;41949;-85
2023/10/11 14:14:20;;;;;;;15.32;12.27;;;;;;;;;;5081745;28;41311;-69
2023/10/11 14:16:48;;;;;;;19.67;14.07;;;;;;;;;;5079151;28;41379;-74
2023/10/11 14:19:17;;;;;;;14.32;8.55;;;;;;;;;;5080436;28;42076;-76
2023/10/11 14:21:47;;;;;;;20.08;12.90;;;;;;;;;;5078469;28;40913;-73
2023/10/11 14:24:16;;;;;;;14.40;9.40;;;;;;;;;;5082991;28;42136;-73
2023/10/11 14:26:45;;;;;;;19.25;10.07;;;;;;;;;;5078001;28;43520;-77
2023/10/11 14:29:13;;;;;;;14.57;9.85;;;;;;;;;;5079502;28;40998;-73
2023/10/11 14:31:42;;;;;;;12.77;9.50;;;;;;;;;;5074422;28;42545;-73
2023/10/11 14:34:11;;;;;;;19.42;11.32;;;;;;;;;;5078679;28;32708;-75
2023/10/11 14:36:40;;;;;;;23.05;10.90;;;;;;;;;;5079556;28;41096;-74
2023/10/11 14:39:18;;;;;;;21.15;12.82;;;;;;;;;;5079032;28;42616;-76
2023/10/11 14:41:48;;;;;;;14.07;10.70;;;;;;;;;;5079718;28;40974;-75
2023/10/11 14:44:16;;;;;;;16.80;12.73;;;;;;;;;;5076975;28;41909;-75
2023/10/11 14:46:47;;;;;;;17.90;13.13;;;;;;;;;;5085230;28;41235;-74
2023/10/11 14:49:20;;;;;;;20.67;13.90;;;;;;;;;;5081745;28;39180;-78
2023/10/11 14:51:48;;;;;;;19.35;14.00;;;;;;;;;;5075032;28;41453;-77
2023/10/11 14:54:17;;;;;;;13.40;9.00;;;;;;;;;;5081647;28;41551;-76
2023/10/11 14:56:46;;;;;;;14.07;9.05;;;;;;;;;;5082638;28;42322;-72
2023/10/11 14:59:14;;;;;;;14.27;10.57;;;;;;;;;;5078189;28;40445;-71
2023/10/11 15:01:42;;;;;;;21.83;10.70;;;;;;;;;;5073889;28;40543;-71
2023/10/11 15:04:10;;;;;;;18.83;10.23;;;;;;;;;;5072026;28;41858;-71
2023/10/11 15:06:39;;;;;;;15.13;9.98;;;;;;;;;;5077552;28;42575;-71
2023/10/11 15:09:09;;;;;;;17.60;11.23;;;;;;;;;;5072342;28;40249;-71
2023/10/11 15:11:38;;;;;;;18.08;9.98;;;;;;;;;;5075002;28;42019;-72
2023/10/11 15:14:07;;;;;;;15.35;8.73;;;;;;;;;;5079897;28;42833;-73
2023/10/11 15:16:36;;;;;;;17.98;12.85;;;;;;;;;;5083512;28;39944;-74
2023/10/11 15:19:04;;;;;;;12.82;8.70;;;;;;;;;;5081652;28;40958;-76
2023/10/11 15:21:32;;;;;;;15.35;11.05;;;;;;;;;;5077388;28;40508;-76
2023/10/11 15:24:07;;;;;;;14.00;9.88;;;;;;;;;;5078556;28;41646;-75
2023/10/11 15:26:35;;;;;;;19.13;15.07;;;;;;;;;;5077495;28;42257;-76